F/V Carmalia — FMFK — position and weather

sailwx.info

Track history (hours):
 
Tides and Currents Weather Stations Pressure Air Temp Water Temp Dewpoint Dewpoint Depression Visibility Wind Speed Wind Dir Waves Ship Positions

F/V Carmalia

Last reported at 2014-Nov-06 03:33 UTC. Time now 2014-Dec-22 13:29 UTC.
Position N 48°27' W 004°50'.
Warning: this ship's position is 46 days out of date.

Length 17 m.

Type: Fishing. MMSI: 228222900.

Date/timePositionNaut miles runAvg speedWind from/ knotsBaromVisibWave heightAir tempDewpointWater temp
2014-Nov-06 03:33N 48°27' W 004°50'10 9.7
2014-Nov-06 02:33N 48°17' W 004°47'9 9.3
2014-Nov-06 01:33N 48°08' W 004°46'53 4.0
2014-Nov-05 12:07N 47°40' W 003°39'5 8.7
2014-Nov-05 11:33N 47°40' W 003°32'7 7.3
2014-Nov-05 10:33N 47°44' W 003°22'0 0.3
2014-Nov-05 09:33N 47°44' W 003°22'0 0.0
2014-Nov-05 08:32N 47°44' W 003°22'0 0.0
2014-Nov-05 07:33N 47°44' W 003°22'0 0.0
2014-Nov-05 06:33N 47°44' W 003°22'0 0.0
2014-Nov-05 05:33N 47°44' W 003°22'0 0.0
2014-Nov-05 04:33N 47°44' W 003°22'0 0.0
2014-Nov-05 03:33N 47°44' W 003°22'0 0.0
2014-Nov-05 02:33N 47°44' W 003°22'0 0.0
2014-Nov-05 01:33N 47°44' W 003°22'0 0.0
2014-Nov-05 00:33N 47°44' W 003°22'0 0.0
2014-Nov-04 23:33N 47°44' W 003°22'0 0.0
2014-Nov-04 22:33N 47°44' W 003°22'0 0.0
2014-Nov-04 21:33N 47°44' W 003°22'0 0.0
2014-Nov-04 20:33N 47°44' W 003°22'0 0.0
2014-Nov-04 19:33N 47°44' W 003°22'0 0.0
2014-Nov-04 18:33N 47°44' W 003°22'0 0.0
2014-Nov-04 17:33N 47°44' W 003°22'0 0.0
2014-Nov-04 16:33N 47°44' W 003°22'0 0.0
2014-Nov-04 15:33N 47°44' W 003°22'0 0.0
2014-Nov-04 14:33N 47°44' W 003°22'0 0.0
2014-Nov-04 13:33N 47°44' W 003°22'0 0.1
2014-Nov-04 12:33N 47°44' W 003°22'0 0.0
2014-Nov-04 11:33N 47°44' W 003°22'0 0.1
2014-Nov-04 10:34N 47°44' W 003°22'0 0.0
2014-Nov-04 09:34N 47°44' W 003°22'0 0.0
2014-Nov-04 08:34N 47°44' W 003°22'0 0.0
2014-Nov-04 07:34N 47°44' W 003°22'0 0.0
2014-Nov-04 06:34N 47°44' W 003°22'0 0.0
2014-Nov-04 05:34N 47°44' W 003°22'0 0.0
2014-Nov-04 04:34N 47°44' W 003°22'0 0.0
2014-Nov-04 03:34N 47°44' W 003°22'0 0.0
2014-Nov-04 02:34N 47°44' W 003°22'0 0.0
2014-Nov-04 01:34N 47°44' W 003°22'0 0.0
2014-Nov-04 00:33N 47°44' W 003°22'0 0.0
2014-Nov-03 23:34N 47°44' W 003°22'0 0.0
2014-Nov-03 22:34N 47°44' W 003°22'0 0.0
2014-Nov-03 21:34N 47°44' W 003°22'0 0.0
2014-Nov-03 20:33N 47°44' W 003°22'0 0.0
2014-Nov-03 19:34N 47°44' W 003°22'0 0.0
2014-Nov-03 19:09N 47°44' W 003°22'0 0.0
2014-Nov-03 18:34N 47°44' W 003°22'0 0.0
2014-Nov-03 18:12N 47°44' W 003°22'0 0.0
2014-Nov-03 17:50N 47°44' W 003°22'0 0.0
2014-Nov-03 17:34N 47°44' W 003°22'0 0.0
2014-Nov-03 16:34N 47°44' W 003°22'0 0.2
2014-Nov-03 14:15N 47°44' W 003°22'0 0.0
2014-Nov-03 13:34N 47°44' W 003°22'0 0.0
2014-Nov-03 12:34N 47°44' W 003°22'0 0.0
2014-Nov-03 11:34N 47°44' W 003°22'0 0.0
2014-Nov-03 10:34N 47°44' W 003°22'0 0.0
2014-Nov-03 09:34N 47°44' W 003°22'  
2014-Oct-31 11:03N 47°44' W 003°22'0 0.0
2014-Oct-31 10:22N 47°44' W 003°22'0 0.0
2014-Oct-31 09:33N 47°44' W 003°22'0 0.0
2014-Oct-31 08:33N 47°44' W 003°22'0 0.0
2014-Oct-30 15:33N 47°44' W 003°22'  
2014-Oct-28 10:08N 47°44' W 003°22'  
Track history (hours):
 
Tides and Currents Weather Stations Pressure Air Temp Water Temp Dewpoint Dewpoint Depression Visibility Wind Speed Wind Dir Waves Ship Positions

F/V Carmalia

Last reported at 2014-Nov-06 03:33 UTC. Time now 2014-Dec-22 13:29 UTC.
Position N 48°27' W 004°50'.
Warning: this ship's position is 46 days out of date.

Length 17 m.

Type: Fishing. MMSI: 228222900.

Date/timePositionNaut miles runAvg speedWind from/ knotsBaromVisibWave heightAir tempDewpointWater temp
2014-Nov-06 03:33N 48°27' W 004°50'10 9.7
2014-Nov-06 02:33N 48°17' W 004°47'9 9.3
2014-Nov-06 01:33N 48°08' W 004°46'53 4.0
2014-Nov-05 12:07N 47°40' W 003°39'5 8.7
2014-Nov-05 11:33N 47°40' W 003°32'7 7.3
2014-Nov-05 10:33N 47°44' W 003°22'0 0.3
2014-Nov-05 09:33N 47°44' W 003°22'0 0.0
2014-Nov-05 08:32N 47°44' W 003°22'0 0.0
2014-Nov-05 07:33N 47°44' W 003°22'0 0.0
2014-Nov-05 06:33N 47°44' W 003°22'0 0.0
2014-Nov-05 05:33N 47°44' W 003°22'0 0.0
2014-Nov-05 04:33N 47°44' W 003°22'0 0.0
2014-Nov-05 03:33N 47°44' W 003°22'0 0.0
2014-Nov-05 02:33N 47°44' W 003°22'0 0.0
2014-Nov-05 01:33N 47°44' W 003°22'0 0.0
2014-Nov-05 00:33N 47°44' W 003°22'0 0.0
2014-Nov-04 23:33N 47°44' W 003°22'0 0.0
2014-Nov-04 22:33N 47°44' W 003°22'0 0.0
2014-Nov-04 21:33N 47°44' W 003°22'0 0.0
2014-Nov-04 20:33N 47°44' W 003°22'0 0.0
2014-Nov-04 19:33N 47°44' W 003°22'0 0.0
2014-Nov-04 18:33N 47°44' W 003°22'0 0.0
2014-Nov-04 17:33N 47°44' W 003°22'0 0.0
2014-Nov-04 16:33N 47°44' W 003°22'0 0.0
2014-Nov-04 15:33N 47°44' W 003°22'0 0.0
2014-Nov-04 14:33N 47°44' W 003°22'0 0.0
2014-Nov-04 13:33N 47°44' W 003°22'0 0.1
2014-Nov-04 12:33N 47°44' W 003°22'0 0.0
2014-Nov-04 11:33N 47°44' W 003°22'0 0.1
2014-Nov-04 10:34N 47°44' W 003°22'0 0.0
2014-Nov-04 09:34N 47°44' W 003°22'0 0.0
2014-Nov-04 08:34N 47°44' W 003°22'0 0.0
2014-Nov-04 07:34N 47°44' W 003°22'0 0.0
2014-Nov-04 06:34N 47°44' W 003°22'0 0.0
2014-Nov-04 05:34N 47°44' W 003°22'0 0.0
2014-Nov-04 04:34N 47°44' W 003°22'0 0.0
2014-Nov-04 03:34N 47°44' W 003°22'0 0.0
2014-Nov-04 02:34N 47°44' W 003°22'0 0.0
2014-Nov-04 01:34N 47°44' W 003°22'0 0.0
2014-Nov-04 00:33N 47°44' W 003°22'0 0.0
2014-Nov-03 23:34N 47°44' W 003°22'0 0.0
2014-Nov-03 22:34N 47°44' W 003°22'0 0.0
2014-Nov-03 21:34N 47°44' W 003°22'0 0.0
2014-Nov-03 20:33N 47°44' W 003°22'0 0.0
2014-Nov-03 19:34N 47°44' W 003°22'0 0.0
2014-Nov-03 19:09N 47°44' W 003°22'0 0.0
2014-Nov-03 18:34N 47°44' W 003°22'0 0.0
2014-Nov-03 18:12N 47°44' W 003°22'0 0.0
2014-Nov-03 17:50N 47°44' W 003°22'0 0.0
2014-Nov-03 17:34N 47°44' W 003°22'0 0.0
2014-Nov-03 16:34N 47°44' W 003°22'0 0.2
2014-Nov-03 14:15N 47°44' W 003°22'0 0.0
2014-Nov-03 13:34N 47°44' W 003°22'0 0.0
2014-Nov-03 12:34N 47°44' W 003°22'0 0.0
2014-Nov-03 11:34N 47°44' W 003°22'0 0.0
2014-Nov-03 10:34N 47°44' W 003°22'0 0.0
2014-Nov-03 09:34N 47°44' W 003°22'  
2014-Oct-31 11:03N 47°44' W 003°22'0 0.0
2014-Oct-31 10:22N 47°44' W 003°22'0 0.0
2014-Oct-31 09:33N 47°44' W 003°22'0 0.0
2014-Oct-31 08:33N 47°44' W 003°22'0 0.0
2014-Oct-30 15:33N 47°44' W 003°22'  
2014-Oct-28 10:08N 47°44' W 003°22'  

Dump ship's entire track history